Time;durP1;ratioP1;P1;durP2;ratioP2;P2;SDS_P1;SDS_P2;PMS_P1;PMS_P2;Temp;Humidity;BMP_temperature;BMP_pressure;BME280_temperature;BME280_humidity;BME280_pressure;Samples;Min_cycle;Max_cycle;Signal;HPM_P1;HPM_P2
2021/03/30 00:01:03;;;;;;;4.53;3.00;;;;;;;;;;5050240;28;20401;-68
2021/03/30 00:03:31;;;;;;;4.80;2.75;;;;;;;;;;5038657;28;20475;-67
2021/03/30 00:05:57;;;;;;;5.05;3.28;;;;;;;;;;5053093;28;20417;-68
2021/03/30 00:08:23;;;;;;;6.20;2.90;;;;;;;;;;5054981;28;20388;-68
2021/03/30 00:10:49;;;;;;;4.88;3.30;;;;;;;;;;5050366;28;20425;-68
2021/03/30 00:13:15;;;;;;;6.05;2.92;;;13.10;91.20;;;;;;5044841;28;20410;-68
2021/03/30 00:15:41;;;;;;;6.35;3.42;;;14.50;80.50;;;;;;5050837;28;20390;-68
2021/03/30 00:18:07;;;;;;;5.80;3.03;;;14.30;80.80;;;;;;5053199;28;20467;-67
2021/03/30 00:20:37;;;;;;;5.95;3.20;;;14.40;80.30;;;;;;5054260;28;20892;-67
2021/03/30 00:23:03;;;;;;;5.50;2.70;;;14.40;79.80;;;;;;5054372;28;20488;-68
2021/03/30 00:25:29;;;;;;;6.07;2.88;;;14.40;79.80;;;;;;5053136;28;20905;-68
2021/03/30 00:27:55;;;;;;;6.53;3.00;;;14.50;79.50;;;;;;5054140;28;20389;-68
2021/03/30 00:30:22;;;;;;;4.95;2.78;;;14.60;79.00;;;;;;5054482;28;20392;-69
2021/03/30 00:32:48;;;;;;;5.97;3.08;;;14.70;78.80;;;;;;5053828;28;20386;-68
2021/03/30 00:35:14;;;;;;;5.93;3.30;;;14.60;78.80;;;;;;5054369;28;20480;-68
2021/03/30 00:37:41;;;;;;;7.57;3.40;;;14.50;79.40;;;;;;5053783;28;20413;-67
2021/03/30 00:40:09;;;;;;;6.50;2.95;;;14.50;79.10;;;;;;5054162;28;20398;-68
2021/03/30 00:42:36;;;;;;;5.13;2.70;;;14.40;79.60;;;;;;5052392;28;20404;-68
2021/03/30 00:45:02;;;;;;;4.43;3.00;;;14.30;79.80;;;;;;5036089;28;20837;-68
2021/03/30 00:47:31;;;;;;;5.22;3.05;;;14.20;79.70;;;;;;5035704;28;20749;-68
2021/03/30 00:49:57;;;;;;;4.15;2.70;;;14.30;79.70;;;;;;5036089;28;20467;-68
2021/03/30 00:52:24;;;;;;;5.53;3.00;;;14.20;80.10;;;;;;5053673;28;20397;-68
2021/03/30 00:54:51;;;;;;;5.90;3.40;;;14.30;79.50;;;;;;5053557;28;20816;-68
2021/03/30 00:57:18;;;;;;;4.88;3.03;;;14.30;79.40;;;;;;5053780;28;20413;-68
2021/03/30 00:59:44;;;;;;;4.85;3.00;;;14.40;78.70;;;;;;5051956;28;20738;-68
2021/03/30 01:02:12;;;;;;;4.40;2.75;;;14.30;78.80;;;;;;5060406;22;20983;-68
2021/03/30 01:04:38;;;;;;;3.78;2.58;;;14.30;78.80;;;;;;5032194;28;20411;-68
2021/03/30 01:07:05;;;;;;;4.72;2.95;;;14.20;78.80;;;;;;5033308;28;20951;-68
2021/03/30 01:09:40;;;;;;;6.60;3.22;;;14.20;79.20;;;;;;5030926;28;20410;-68
2021/03/30 01:12:29;;;;;;;6.22;3.13;;;14.10;79.50;;;;;;5033488;28;20467;-68
2021/03/30 01:15:01;;;;;;;5.03;3.20;;;;;;;;;;5033511;28;20388;-69
2021/03/30 01:17:36;;;;;;;5.60;2.70;;;14.10;79.30;;;;;;5031869;28;20506;-70
2021/03/30 01:20:26;;;;;;;6.82;3.25;;;13.90;79.20;;;;;;5033433;28;20438;-69
2021/03/30 01:23:14;;;;;;;8.15;3.08;;;13.90;79.10;;;;;;5028746;28;20459;-69
2021/03/30 01:25:46;;;;;;;5.93;3.40;;;13.80;79.50;;;;;;5044438;28;20410;-70
2021/03/30 01:28:23;;;;;;;5.60;3.00;;;13.90;79.20;;;;;;5033077;28;20716;-69
2021/03/30 01:30:51;;;;;;;6.78;3.10;;;13.90;78.90;;;;;;5031915;28;20410;-69
2021/03/30 01:33:22;;;;;;;4.50;3.30;;;13.90;78.80;;;;;;5032850;28;20403;-69
2021/03/30 01:35:52;;;;;;;6.72;3.10;;;13.90;78.50;;;;;;5030022;28;20461;-69
2021/03/30 01:38:18;;;;;;;4.70;2.97;;;14.00;77.80;;;;;;5048185;28;20407;-69
2021/03/30 01:40:46;;;;;;;5.72;3.22;;;14.00;77.60;;;;;;5032970;28;20886;-69
2021/03/30 01:43:14;;;;;;;7.93;3.38;;;14.10;77.40;;;;;;5024978;28;20396;-69
2021/03/30 01:45:40;;;;;;;4.43;2.67;;;14.00;78.10;;;;;;5032917;28;20485;-69
2021/03/30 01:48:10;;;;;;;4.63;2.83;;;13.90;78.00;;;;;;5032815;28;20426;-69
2021/03/30 01:50:37;;;;;;;4.72;3.00;;;13.90;77.70;;;;;;5047903;28;20439;-69
2021/03/30 01:53:04;;;;;;;5.72;2.70;;;13.90;78.40;;;;;;5032511;28;20433;-69
2021/03/30 01:55:32;;;;;;;4.17;2.83;;;13.80;78.10;;;;;;5032561;28;20422;-69
2021/03/30 01:57:59;;;;;;;4.30;3.00;;;13.70;78.40;;;;;;5023954;28;20618;-69
2021/03/30 02:00:28;;;;;;;4.93;2.80;;;;;;;;;;5048112;28;20407;-69
2021/03/30 02:02:54;;;;;;;7.30;3.08;;;;;;;;;;5042403;28;20433;-69
2021/03/30 02:05:22;;;;;;;4.93;2.83;;;;;;;;;;5037016;28;20409;-69
2021/03/30 02:07:52;;;;;;;4.55;2.63;;;;;;;;;;5051558;28;20837;-69
2021/03/30 02:10:32;;;;;;;5.10;2.72;;;;;;;;;;5050077;28;20421;-69
2021/03/30 02:12:59;;;;;;;4.95;2.45;;;;;;;;;;5051542;28;20425;-69
2021/03/30 02:15:25;;;;;;;5.35;2.90;;;;;;;;;;5050978;28;20397;-69
2021/03/30 02:17:54;;;;;;;9.65;2.88;;;;;;;;;;5036419;28;20436;-69
2021/03/30 02:20:23;;;;;;;6.93;3.13;;;;;;;;;;5052930;28;20455;-69
2021/03/30 02:22:50;;;;;;;5.35;2.95;;;;;;;;;;5041073;28;20405;-69
2021/03/30 02:25:18;;;;;;;5.72;3.00;;;;;;;;;;5051944;28;20393;-69
2021/03/30 02:27:44;;;;;;;6.18;3.03;;;;;;;;;;5051940;28;20443;-69
2021/03/30 02:30:12;;;;;;;5.63;2.78;;;;;;;;;;5051950;28;20401;-69
2021/03/30 02:32:39;;;;;;;6.55;2.90;;;;;;;;;;5040196;28;20940;-68
2021/03/30 02:35:09;;;;;;;6.82;3.28;;;;;;;;;;5052339;28;20887;-65
2021/03/30 02:37:37;;;;;;;6.55;2.63;;;;;;;;;;5035400;28;20772;-65
2021/03/30 02:40:04;;;;;;;6.22;2.75;;;;;;;;;;5051937;28;20405;-65
2021/03/30 02:42:31;;;;;;;4.53;2.63;;;;;;;;;;5051426;28;20402;-66
2021/03/30 02:44:57;;;;;;;5.00;2.65;;;;;;;;;;5051713;28;20441;-66
2021/03/30 02:47:24;;;;;;;5.05;2.80;;;;;;;;;;5050305;28;20405;-66
2021/03/30 02:49:51;;;;;;;5.10;2.92;;;;;;;;;;5051692;28;20397;-66
2021/03/30 02:52:18;;;;;;;6.88;2.65;;;;;;;;;;5052076;28;20872;-69
2021/03/30 02:54:46;;;;;;;3.15;2.70;;;;;;;;;;5051339;28;20396;-69
2021/03/30 02:57:14;;;;;;;3.65;3.03;;;;;;;;;;5051482;28;20401;-68
2021/03/30 02:59:40;;;;;;;5.10;2.57;;;;;;;;;;5042207;28;20405;-68
2021/03/30 03:02:07;;;;;;;4.30;2.60;;;;;;;;;;5036130;28;20484;-69
2021/03/30 03:04:35;;;;;;;3.75;2.35;;;;;;;;;;5050838;28;20401;-69
2021/03/30 03:07:02;;;;;;;5.67;2.53;;;;;;;;;;5051500;28;20509;-69
2021/03/30 03:09:29;;;;;;;6.05;2.80;;;;;;;;;;5049974;28;20463;-69
2021/03/30 03:11:57;;;;;;;4.60;2.35;;;;;;;;;;5051213;28;20451;-69
2021/03/30 03:14:23;;;;;;;6.53;3.25;;;;;;;;;;5051850;28;20404;-69
2021/03/30 03:16:50;;;;;;;5.57;2.30;;;;;;;;;;5051436;28;20642;-69
2021/03/30 03:19:17;;;;;;;3.63;2.58;;;;;;;;;;5050246;28;20501;-68
2021/03/30 03:21:43;;;;;;;4.50;2.55;;;;;;;;;;5037847;28;20482;-69
2021/03/30 03:24:10;;;;;;;4.97;2.60;;;;;;;;;;5051808;28;20491;-69
2021/03/30 03:26:38;;;;;;;4.38;2.13;;;;;;;;;;5055440;28;20405;-69
2021/03/30 03:29:10;;;;;;;5.50;2.17;;;;;;;;;;5055022;28;20818;-69
2021/03/30 03:31:36;;;;;;;4.60;2.50;;;;;;;;;;5050124;28;20898;-69
2021/03/30 03:34:03;;;;;;;3.73;2.63;;;;;;;;;;5052387;28;20959;-69
2021/03/30 03:36:34;;;;;;;4.30;2.40;;;;;;;;;;5055369;28;20478;-69
2021/03/30 03:39:00;;;;;;;5.32;2.60;;;;;;;;;;5056846;28;20447;-68
2021/03/30 03:41:27;;;;;;;5.95;2.80;;;;;;;;;;5064000;28;20397;-69
2021/03/30 03:43:53;;;;;;;4.87;2.50;;;;;;;;;;5036886;28;20921;-68
2021/03/30 03:46:20;;;;;;;6.35;2.63;;;;;;;;;;5055142;28;20428;-69
2021/03/30 03:48:46;;;;;;;4.63;2.35;;;;;;;;;;5054751;28;20397;-68
2021/03/30 03:51:13;;;;;;;5.00;2.20;;;;;;;;;;5066160;28;20496;-68
2021/03/30 03:53:40;;;;;;;4.72;2.58;;;;;;;;;;5065601;28;20411;-69
2021/03/30 03:56:08;;;;;;;6.00;2.80;;;;;;;;;;5057750;28;20399;-69
2021/03/30 03:58:37;;;;;;;4.70;2.33;;;;;;;;;;5062805;28;20408;-69
2021/03/30 04:01:04;;;;;;;4.13;2.55;;;;;;;;;;5054488;28;20401;-69
2021/03/30 04:03:34;;;;;;;4.07;2.47;;;;;;;;;;5054423;28;20401;-69
2021/03/30 04:06:03;;;;;;;5.07;2.30;;;;;;;;;;5054278;28;20496;-69
2021/03/30 04:08:31;;;;;;;4.18;2.50;;;;;;;;;;5065014;28;20428;-69
2021/03/30 04:11:00;;;;;;;6.97;2.55;;;;;;;;;;5054529;28;20888;-69
2021/03/30 04:13:30;;;;;;;7.10;2.88;;;;;;;;;;5036904;28;20951;-69
2021/03/30 04:15:56;;;;;;;4.05;1.95;;;;;;;;;;5054487;28;20443;-69
2021/03/30 04:18:22;;;;;;;6.13;2.65;;;;;;;;;;5053878;28;20417;-68
2021/03/30 04:20:49;;;;;;;5.00;2.50;;;;;;;;;;5053186;28;20459;-69
2021/03/30 04:23:22;;;;;;;6.45;2.75;;;;;;;;;;5054294;28;20504;-69
2021/03/30 04:25:48;;;;;;;6.13;2.50;;;;;;;;;;5054110;28;20480;-69
2021/03/30 04:28:14;;;;;;;4.90;2.63;;;;;;;;;;5036370;28;20436;-70
2021/03/30 04:30:40;;;;;;;5.90;2.70;;;;;;;;;;5052196;28;20389;-69
2021/03/30 04:33:06;;;;;;;5.82;2.63;;;;;;;;;;5036172;28;20492;-69
2021/03/30 04:35:32;;;;;;;4.30;2.90;;;;;;;;;;5053151;28;20398;-69
2021/03/30 04:37:59;;;;;;;7.50;2.67;;;;;;;;;;5061819;28;20419;-69
2021/03/30 04:40:26;;;;;;;7.72;2.70;;;;;;;;;;5056317;28;20420;-69
2021/03/30 04:42:52;;;;;;;4.63;2.80;;;;;;;;;;5062724;28;20406;-69
2021/03/30 04:45:18;;;;;;;6.30;2.20;;;;;;;;;;5037333;28;20771;-69
2021/03/30 04:47:44;;;;;;;5.68;2.72;;;;;;;;;;5058067;28;20808;-69
2021/03/30 04:50:11;;;;;;;4.15;2.92;;;;;;;;;;5067979;28;20400;-69
2021/03/30 04:52:37;;;;;;;5.38;2.70;;;;;;;;;;5063741;28;20488;-69
2021/03/30 04:55:08;;;;;;;6.63;2.97;;;;;;;;;;5053943;28;20401;-69
2021/03/30 04:57:37;;;;;;;6.10;2.55;;;;;;;;;;5035538;28;20454;-69
2021/03/30 05:00:03;;;;;;;4.60;2.40;;;;;;;;;;5053870;28;20398;-69
2021/03/30 05:02:30;;;;;;;6.72;2.25;;;;;;;;;;5045233;28;20768;-68
2021/03/30 05:04:56;;;;;;;4.78;2.42;;;;;;;;;;5052580;28;20404;-68
2021/03/30 05:07:22;;;;;;;6.25;2.38;;;;;;;;;;5053419;28;20397;-68
2021/03/30 05:09:48;;;;;;;6.07;2.90;;;;;;;;;;5053621;28;20447;-68
2021/03/30 05:12:15;;;;;;;6.05;2.53;;;;;;;;;;5053337;28;20891;-68
2021/03/30 05:14:42;;;;;;;5.72;2.47;;;;;;;;;;5052196;28;20405;-68
2021/03/30 05:17:09;;;;;;;4.32;3.40;;;;;;;;;;5041692;28;20397;-68
2021/03/30 05:19:35;;;;;;;5.25;2.55;;;;;;;;;;5053377;28;20404;-69
2021/03/30 05:22:01;;;;;;;5.32;2.70;;;;;;;;;;5053017;28;20463;-69
2021/03/30 05:24:27;;;;;;;5.17;2.50;;;;;;;;;;5052940;28;20756;-68
2021/03/30 05:26:53;;;;;;;16.10;2.90;;;;;;;;;;5052434;28;20428;-68
2021/03/30 05:29:20;;;;;;;6.28;3.10;;;;;;;;;;5052874;28;20396;-68
2021/03/30 05:31:47;;;;;;;5.63;3.07;;;;;;;;;;5052160;28;20466;-70
2021/03/30 05:34:13;;;;;;;6.97;3.70;;;;;;;;;;5052946;28;20408;-68
2021/03/30 05:36:39;;;;;;;4.63;2.85;;;13.70;78.90;;;;;;5034431;28;20892;-68
2021/03/30 05:39:05;;;;;;;6.53;3.17;;;;;;;;;;5034720;28;20405;-69
2021/03/30 05:41:31;;;;;;;5.50;3.05;;;;;;;;;;5052336;28;20401;-68
2021/03/30 05:43:58;;;;;;;5.57;2.88;;;;;;;;;;5051959;28;20401;-68
2021/03/30 05:46:25;;;;;;;5.40;2.63;;;;;;;;;;5052238;28;20959;-68
2021/03/30 05:48:52;;;;;;;7.53;2.90;;;;;;;;;;5060085;28;20401;-68
2021/03/30 05:51:19;;;;;;;14.30;4.47;;;11.60;84.30;;;;;;5053540;28;20401;-68
2021/03/30 05:53:53;;;;;;;11.05;4.00;;;11.90;82.40;;;;;;5058788;28;20424;-68
2021/03/30 05:56:20;;;;;;;5.78;4.03;;;11.60;84.90;;;;;;5052558;28;20388;-69
2021/03/30 05:58:47;;;;;;;6.60;3.70;;;11.40;86.10;;;;;;5052370;28;20413;-68
2021/03/30 06:01:14;;;;;;;6.75;4.20;;;;;;;;;;5052461;28;20417;-69
2021/03/30 06:03:41;;;;;;;7.85;3.88;;;;;;;;;;5056925;28;20407;-68
2021/03/30 06:06:08;;;;;;;6.90;3.70;;;;;;;;;;5052204;28;20901;-68
2021/03/30 06:08:35;;;;;;;6.68;3.83;;;;;;;;;;5052349;28;20476;-69
2021/03/30 06:11:04;;;;;;;7.35;4.75;;;;;;;;;;5052193;28;20397;-69
2021/03/30 06:13:52;;;;;;;7.72;4.35;;;;;;;;;;5052083;28;20872;-68
2021/03/30 06:16:26;;;;;;;8.55;5.10;;;;;;;;;;5052487;28;20389;-68
2021/03/30 06:19:08;;;;;;;8.70;5.43;;;11.00;88.00;;;;;;5064599;28;20845;-69
2021/03/30 06:21:38;;;;;;;7.13;4.82;;;10.20;94.50;;;;;;5051104;28;20421;-69
2021/03/30 06:24:26;;;;;;;13.13;6.40;;;10.10;94.20;;;;;;5051793;28;20424;-69
2021/03/30 06:26:57;;;;;;;9.40;5.78;;;10.20;93.70;;;;;;5048917;28;20414;-68
2021/03/30 06:29:28;;;;;;;8.32;4.43;;;10.50;93.50;;;;;;5039160;28;20417;-69
2021/03/30 06:31:55;;;;;;;8.10;4.60;;;10.70;92.60;;;;;;5052104;28;20400;-68
2021/03/30 06:34:28;;;;;;;7.93;5.18;;;;;;;;;;5041002;28;20742;-68
2021/03/30 06:36:55;;;;;;;8.45;5.75;;;;;;;;;;5059980;28;20399;-69
2021/03/30 06:39:32;;;;;;;7.40;5.60;;;;;;;;;;5053796;28;20416;-68
2021/03/30 06:42:04;;;;;;;6.80;5.25;;;;;;;;;;5038451;28;20405;-68
2021/03/30 06:44:33;;;;;;;8.32;5.88;;;;;;;;;;5051929;28;20421;-69
2021/03/30 06:47:01;;;;;;;9.50;6.05;;;;;;;;;;5051753;28;20401;-68
2021/03/30 06:49:30;;;;;;;7.00;5.38;;;;;;;;;;5063139;28;20476;-69
2021/03/30 06:51:57;;;;;;;5.25;4.68;;;;;;;;;;5034055;28;20397;-68
2021/03/30 06:54:23;;;;;;;6.53;4.53;;;;;;;;;;5054145;28;20421;-68
2021/03/30 06:56:52;;;;;;;7.45;4.65;;;;;;;;;;5060234;28;20401;-69
2021/03/30 06:59:19;;;;;;;7.32;4.30;;;;;;;;;;5050995;28;20495;-68
2021/03/30 07:01:46;;;;;;;6.97;5.00;;;;;;;;;;5051525;28;20440;-68
2021/03/30 07:04:13;;;;;;;7.65;4.07;;;;;;;;;;5051701;28;20853;-68
2021/03/30 07:06:40;;;;;;;7.47;4.43;;;;;;;;;;5057375;28;20396;-68
2021/03/30 07:09:10;;;;;;;7.85;4.10;;;12.30;91.30;;;;;;5067865;28;20423;-68
2021/03/30 07:11:39;;;;;;;5.45;3.38;;;;;;;;;;5051477;28;20752;-68
2021/03/30 07:14:06;;;;;;;12.38;3.80;;;;;;;;;;5045001;28;20402;-69
2021/03/30 07:16:34;;;;;;;6.18;2.85;;;;;;;;;;5051552;28;20880;-69
2021/03/30 07:19:01;;;;;;;6.40;2.53;;;12.40;91.00;;;;;;5046832;28;20430;-69
2021/03/30 07:21:30;;;;;;;5.97;2.87;;;;;;;;;;5043365;28;20810;-69
2021/03/30 07:23:58;;;;;;;4.93;2.65;;;;;;;;;;5049954;28;20421;-68
2021/03/30 07:26:27;;;;;;;5.60;2.63;;;;;;;;;;5051689;28;20405;-69
2021/03/30 07:28:58;;;;;;;9.47;2.77;;;;;;;;;;5050591;28;20390;-68
2021/03/30 07:31:26;;;;;;;7.60;2.65;;;;;;;;;;5051613;28;20404;-69
2021/03/30 07:33:56;;;;;;;6.18;2.63;;;;;;;;;;5051353;28;20429;-69
2021/03/30 07:36:24;;;;;;;10.68;3.22;;;;;;;;;;5051654;28;20405;-69
2021/03/30 07:38:53;;;;;;;6.22;2.80;;;;;;;;;;5051036;28;20419;-68
2021/03/30 07:41:20;;;;;;;4.50;2.85;;;;;;;;;;5051612;28;20397;-69
2021/03/30 07:43:47;;;;;;;6.75;2.70;;;;;;;;;;5062259;28;20422;-69
2021/03/30 07:46:14;;;;;;;6.20;3.15;;;;;;;;;;5056795;28;20442;-69
2021/03/30 07:48:41;;;;;;;5.38;3.10;;;;;;;;;;5056685;28;20416;-68
2021/03/30 07:51:08;;;;;;;4.07;2.10;;;;;;;;;;5035584;28;20829;-68
2021/03/30 07:53:42;;;;;;;5.57;2.63;;;;;;;;;;5051336;28;20901;-68
2021/03/30 07:56:09;;;;;;;5.55;2.42;;;;;;;;;;5048694;28;20444;-68
2021/03/30 07:58:37;;;;;;;4.38;2.13;;;;;;;;;;5051162;28;20421;-68
2021/03/30 08:01:04;;;;;;;5.20;2.78;;;;;;;;;;5050952;28;20412;-68
2021/03/30 08:03:34;;;;;;;4.13;1.90;;;;;;;;;;5050954;28;20445;-69
2021/03/30 08:06:04;;;;;;;7.33;2.70;;;;;;;;;;5059254;28;20397;-68
2021/03/30 08:08:30;;;;;;;4.03;2.67;;;;;;;;;;5058116;28;20736;-69
2021/03/30 08:10:57;;;;;;;5.32;2.67;;;;;;;;;;5055611;28;20455;-69
2021/03/30 08:13:24;;;;;;;7.80;2.58;;;;;;;;;;5054531;28;20389;-68
2021/03/30 08:15:51;;;;;;;6.05;2.33;;;;;;;;;;5054726;28;20476;-69
2021/03/30 08:18:19;;;;;;;5.28;2.20;;;;;;;;;;5054581;28;20422;-69
2021/03/30 08:20:55;;;;;;;6.03;2.50;;;;;;;;;;5054268;28;20393;-68
2021/03/30 08:23:21;;;;;;;4.75;1.90;;;;;;;;;;5054716;28;20420;-69
2021/03/30 08:25:50;;;;;;;4.43;2.20;;;;;;;;;;5038994;28;20824;-68
2021/03/30 08:28:34;;;;;;;4.63;2.13;;;;;;;;;;5054645;28;20474;-68
2021/03/30 08:31:01;;;;;;;6.78;2.17;;;;;;;;;;5035057;28;20389;-68
2021/03/30 08:33:32;;;;;;;4.30;2.00;;;;;;;;;;5052606;28;20405;-68
2021/03/30 08:36:15;;;;;;;5.47;2.47;;;;;;;;;;5049576;28;20480;-68
2021/03/30 08:38:42;;;;;;;5.20;1.80;;;;;;;;;;5036038;28;20459;-69
2021/03/30 08:41:09;;;;;;;5.90;2.20;;;;;;;;;;5054147;28;20410;-68
2021/03/30 08:43:35;;;;;;;4.68;2.28;;;;;;;;;;5062049;28;20417;-68
2021/03/30 08:46:04;;;;;;;6.80;1.92;;;;;;;;;;5064033;28;20409;-68
2021/03/30 08:48:35;;;;;;;5.55;2.00;;;;;;;;;;5054270;28;20429;-69
2021/03/30 08:51:01;;;;;;;6.47;2.63;;;;;;;;;;5056506;28;20785;-69
2021/03/30 08:53:30;;;;;;;6.43;2.33;;;;;;;;;;5071126;28;20423;-69
2021/03/30 08:55:57;;;;;;;4.80;1.90;;;;;;;;;;5041621;28;20397;-69
2021/03/30 08:58:25;;;;;;;8.90;3.30;;;;;;;;;;5070913;28;20423;-69
2021/03/30 09:00:52;;;;;;;6.60;2.75;;;;;;;;;;5038870;28;20415;-69
2021/03/30 09:03:24;;;;;;;11.55;5.90;;;;;;;;;;5070833;28;20415;-69
2021/03/30 09:05:50;;;;;;;11.93;6.30;;;;;;;;;;5055895;28;20398;-68
2021/03/30 09:08:33;;;;;;;12.70;7.65;;;;;;;;;;5052324;28;20416;-68
2021/03/30 09:11:13;;;;;;;11.45;6.78;;;;;;;;;;5053613;28;20752;-69
2021/03/30 09:13:40;;;;;;;11.82;7.03;;;;;;;;;;5053278;28;20419;-69
2021/03/30 09:16:09;;;;;;;14.60;8.98;;;;;;;;;;5053598;28;20394;-69
2021/03/30 09:18:37;;;;;;;13.13;8.25;;;;;;;;;;5035318;28;20453;-68
2021/03/30 09:21:07;;;;;;;11.75;8.10;;;;;;;;;;5053400;28;20401;-69
2021/03/30 09:23:33;;;;;;;14.25;8.23;;;;;;;;;;5051477;28;20401;-68
2021/03/30 09:26:01;;;;;;;14.93;8.88;;;;;;;;;;5053399;28;20431;-68
2021/03/30 09:28:27;;;;;;;12.57;8.82;;;;;;;;;;5053365;28;20393;-69
2021/03/30 09:30:53;;;;;;;14.93;8.60;;;;;;;;;;5052959;28;20393;-69
2021/03/30 09:33:20;;;;;;;14.68;9.40;;;;;;;;;;5053043;28;20393;-68
2021/03/30 09:35:47;;;;;;;14.90;8.63;;;;;;;;;;5056424;28;20515;-69
2021/03/30 09:38:14;;;;;;;15.48;8.73;;;;;;;;;;5070089;28;20415;-69
2021/03/30 09:40:42;;;;;;;13.85;8.93;;;;;;;;;;5053847;28;20869;-68
2021/03/30 09:43:09;;;;;;;12.15;7.43;;;;;;;;;;5052867;28;20398;-68
2021/03/30 09:45:36;;;;;;;13.82;7.18;;;;;;;;;;5052634;28;20389;-68
2021/03/30 09:48:03;;;;;;;10.75;6.55;;;;;;;;;;5037740;28;20401;-69
2021/03/30 09:50:30;;;;;;;9.40;6.28;;;;;;;;;;5052577;28;20780;-68
2021/03/30 09:53:02;;;;;;;12.50;5.70;;;15.70;72.40;;;;;;5053089;28;20412;-68
2021/03/30 09:55:30;;;;;;;14.82;7.63;;;21.50;58.80;;;;;;5037463;28;20836;-68
2021/03/30 09:58:00;;;;;;;11.43;7.28;;;;;;;;;;5052512;28;20463;-69
2021/03/30 10:00:26;;;;;;;12.27;8.00;;;;;;;;;;5052711;28;20405;-69
2021/03/30 10:02:53;;;;;;;12.48;7.25;;;;;;;;;;5062950;28;20409;-68
2021/03/30 10:05:19;;;;;;;12.70;7.72;;;;;;;;;;5069960;28;20392;-69
2021/03/30 10:07:45;;;;;;;10.60;7.20;;;;;;;;;;5054673;28;20775;-69
2021/03/30 10:10:13;;;;;;;11.88;7.43;;;;;;;;;;5053445;28;20402;-69
2021/03/30 10:12:48;;;;;;;12.83;7.40;;;;;;;;;;5052774;28;20517;-69
2021/03/30 10:15:14;;;;;;;13.48;7.45;;;;;;;;;;5051979;28;20404;-68
2021/03/30 10:17:41;;;;;;;14.02;8.07;;;;;;;;;;5052224;28;20432;-68
2021/03/30 10:20:11;;;;;;;11.02;7.63;;;;;;;;;;5052188;28;20401;-68
2021/03/30 10:22:38;;;;;;;16.20;9.82;;;;;;;;;;5052731;28;20872;-68
2021/03/30 10:25:11;;;;;;;12.50;8.68;;;;;;;;;;5052362;28;20443;-69
2021/03/30 10:27:38;;;;;;;15.80;8.93;;;;;;;;;;5038626;28;20864;-69
2021/03/30 10:30:06;;;;;;;14.13;9.10;;;;;;;;;;5052063;28;20416;-68
2021/03/30 10:32:43;;;;;;;14.17;8.57;;;;;;;;;;5052044;28;20404;-68
2021/03/30 10:35:10;;;;;;;15.00;8.57;;;;;;;;;;5051208;28;20942;-68
2021/03/30 10:37:37;;;;;;;14.82;8.43;;;;;;;;;;5051887;28;20432;-68
2021/03/30 10:40:04;;;;;;;14.85;8.45;;;;;;;;;;5059860;28;20401;-68
2021/03/30 10:42:33;;;;;;;14.52;8.65;;;;;;;;;;5036508;28;20408;-69
2021/03/30 10:45:05;;;;;;;11.93;8.32;;;;;;;;;;5058267;28;20398;-69
2021/03/30 10:47:33;;;;;;;15.93;8.77;;;;;;;;;;5052258;28;20389;-69
2021/03/30 10:49:59;;;;;;;16.67;9.07;;;;;;;;;;5034227;28;20436;-68
2021/03/30 10:52:37;;;;;;;15.40;8.43;;;;;;;;;;5051082;28;20393;-68
2021/03/30 10:55:05;;;;;;;15.13;8.98;;;;;;;;;;5051116;28;20425;-68
2021/03/30 10:57:35;;;;;;;16.48;7.97;;;;;;;;;;5047254;28;20971;-68
2021/03/30 11:00:03;;;;;;;15.25;8.70;;;;;;;;;;5048800;28;20407;-68
2021/03/30 11:02:29;;;;;;;16.02;8.70;;;;;;;;;;5048713;28;20413;-68
2021/03/30 11:04:55;;;;;;;15.27;8.60;;;;;;;;;;5050845;28;20961;-68
2021/03/30 11:07:22;;;;;;;14.43;9.02;;;;;;;;;;5048096;28;20401;-68
2021/03/30 11:09:48;;;;;;;12.20;8.52;;;;;;;;;;5050769;28;20398;-68
2021/03/30 11:12:14;;;;;;;14.93;8.57;;;;;;;;;;5050111;28;20398;-69
2021/03/30 11:14:41;;;;;;;17.23;9.30;;;20.80;59.60;;;;;;5050406;28;20397;-69
2021/03/30 11:17:08;;;;;;;14.30;8.07;;;22.90;56.60;;;;;;5050340;28;20476;-69
2021/03/30 11:19:34;;;;;;;17.25;8.98;;;23.00;58.00;;;;;;5050593;28;20409;-68
2021/03/30 11:22:00;;;;;;;13.07;9.00;;;22.80;55.90;;;;;;5050301;28;20403;-68
2021/03/30 11:24:29;;;;;;;18.20;9.50;;;22.50;57.50;;;;;;5050602;28;20397;-69
2021/03/30 11:26:56;;;;;;;18.40;9.10;;;22.70;57.50;;;;;;5050504;28;20772;-69
2021/03/30 11:35:34;;;;;;;13.75;8.80;;;22.80;58.20;;;;;;5048141;28;20796;-69
2021/03/30 11:37:40;;;;;;;16.40;8.80;;;22.80;56.80;;;;;;5042494;28;20479;-69
2021/03/30 11:40:07;;;;;;;17.33;9.05;;;23.30;58.10;;;;;;5050391;28;20394;-69
2021/03/30 11:42:33;;;;;;;15.63;9.60;;;23.70;54.80;;;;;;5049134;28;20400;-68
2021/03/30 11:44:59;;;;;;;18.37;10.80;;;;;;;;;;5033504;28;20397;-68
2021/03/30 11:47:25;;;;;;;18.33;9.93;;;23.80;53.80;;;;;;5052833;28;20900;-69
2021/03/30 11:49:52;;;;;;;18.87;10.30;;;22.70;55.40;;;;;;5053607;28;20385;-69
2021/03/30 11:52:18;;;;;;;15.40;9.18;;;22.80;55.80;;;;;;5055514;28;20911;-68
2021/03/30 11:54:45;;;;;;;18.10;10.27;;;23.10;56.70;;;;;;5056757;28;20396;-69
2021/03/30 11:57:11;;;;;;;20.85;10.93;;;23.20;54.40;;;;;;5054690;28;20791;-68
2021/03/30 11:59:37;;;;;;;16.15;9.55;;;23.00;54.90;;;;;;5049707;28;20413;-69
2021/03/30 12:02:04;;;;;;;17.48;9.90;;;;;;;;;;5023933;28;20485;-69
2021/03/30 12:04:30;;;;;;;20.23;11.90;;;;;;;;;;5045623;28;20394;-69
2021/03/30 12:06:58;;;;;;;17.55;11.13;;;;;;;;;;5041185;28;20826;-69
2021/03/30 12:09:24;;;;;;;18.42;10.82;;;;;;;;;;5045262;28;20965;-69
2021/03/30 12:11:50;;;;;;;17.08;10.85;;;;;;;;;;5022971;28;20409;-69
2021/03/30 12:14:17;;;;;;;18.05;11.90;;;;;;;;;;5037102;28;20404;-69
2021/03/30 12:16:45;;;;;;;17.02;10.52;;;;;;;;;;5037995;28;20495;-69
2021/03/30 12:19:11;;;;;;;26.10;12.07;;;;;;;;;;5036319;28;20427;-69
2021/03/30 12:21:37;;;;;;;18.88;11.23;;;;;;;;;;5034002;28;20446;-69
2021/03/30 12:24:05;;;;;;;19.23;10.80;;;23.30;59.90;;;;;;5039932;28;20394;-69
2021/03/30 12:26:30;;;;;;;18.27;11.50;;;24.40;54.30;;;;;;5037107;28;20405;-69
2021/03/30 12:28:58;;;;;;;16.90;11.23;;;24.30;52.90;;;;;;5051737;28;20447;-69
2021/03/30 12:31:24;;;;;;;16.98;10.30;;;24.20;54.00;;;;;;5044192;28;20459;-69
2021/03/30 12:33:50;;;;;;;17.38;11.35;;;24.20;54.00;;;;;;5053867;28;20892;-70
2021/03/30 12:36:16;;;;;;;21.23;11.23;;;24.30;53.10;;;;;;5054079;28;20962;-69
2021/03/30 12:38:42;;;;;;;18.67;10.25;;;;;;;;;;5058792;28;20925;-70
2021/03/30 12:41:09;;;;;;;17.20;10.60;;;;;;;;;;5064728;28;20488;-69
2021/03/30 12:43:35;;;;;;;16.77;10.80;;;;;;;;;;5053675;28;20401;-69
2021/03/30 12:46:01;;;;;;;18.55;11.82;;;;;;;;;;5054106;28;20397;-70
2021/03/30 12:48:27;;;;;;;17.40;10.88;;;;;;;;;;5054183;28;20391;-70
2021/03/30 12:50:54;;;;;;;15.75;9.75;;;;;;;;;;5037585;28;20405;-70
2021/03/30 12:53:20;;;;;;;21.40;11.55;;;25.40;51.00;;;;;;5071394;28;20395;-70
2021/03/30 12:55:46;;;;;;;20.13;12.00;;;25.80;50.30;;;;;;5038702;28;20908;-70
2021/03/30 12:58:13;;;;;;;19.77;11.00;;;;;;;;;;5052993;28;20439;-70
2021/03/30 13:00:39;;;;;;;18.35;10.77;;;;;;;;;;5053536;28;20402;-70
2021/03/30 13:03:06;;;;;;;18.33;11.00;;;;;;;;;;5064588;28;20926;-70
2021/03/30 13:05:32;;;;;;;15.40;10.20;;;;;;;;;;5053743;28;20397;-70
2021/03/30 13:07:58;;;;;;;18.67;11.57;;;;;;;;;;5034482;28;20407;-70
2021/03/30 13:10:24;;;;;;;15.73;10.75;;;;;;;;;;5054605;28;20421;-70
2021/03/30 13:12:50;;;;;;;16.75;10.57;;;;;;;;;;5053611;28;20397;-70
2021/03/30 13:15:18;;;;;;;18.35;11.38;;;;;;;;;;5053704;28;20864;-70
2021/03/30 13:17:44;;;;;;;18.73;11.05;;;;;;;;;;5053444;28;20433;-70
2021/03/30 13:20:10;;;;;;;17.02;10.57;;;;;;;;;;5053195;28;20919;-69
2021/03/30 13:22:36;;;;;;;17.05;10.38;;;;;;;;;;5053362;28;20895;-69
2021/03/30 13:25:04;;;;;;;18.85;11.15;;;;;;;;;;5053486;28;20554;-69
2021/03/30 13:27:30;;;;;;;17.13;11.15;;;;;;;;;;5053055;28;20792;-69
2021/03/30 13:29:56;;;;;;;18.70;11.35;;;;;;;;;;5053260;28;20473;-70
2021/03/30 13:32:24;;;;;;;17.02;10.95;;;;;;;;;;5066361;28;20397;-69
2021/03/30 13:34:50;;;;;;;18.67;10.75;;;;;;;;;;5053268;28;20429;-70
2021/03/30 13:37:17;;;;;;;18.13;11.05;;;;;;;;;;5053302;28;20481;-69
2021/03/30 13:39:43;;;;;;;20.77;11.77;;;25.10;50.40;;;;;;5053003;28;20427;-70
2021/03/30 13:42:11;;;;;;;17.25;10.82;;;25.50;50.80;;;;;;5053007;28;20429;-69
2021/03/30 13:44:37;;;;;;;19.92;11.27;;;25.60;49.80;;;;;;5042460;28;20942;-70
2021/03/30 13:47:05;;;;;;;17.65;11.48;;;25.90;50.00;;;;;;5052844;28;20396;-70
2021/03/30 13:49:35;;;;;;;16.92;11.30;;;;;;;;;;5052634;28;20390;-70
2021/03/30 13:52:01;;;;;;;16.67;10.68;;;;;;;;;;5052935;28;20455;-70
2021/03/30 13:54:28;;;;;;;18.17;11.13;;;26.10;50.10;;;;;;5049949;28;20405;-70
2021/03/30 13:56:55;;;;;;;16.63;10.48;;;27.00;47.20;;;;;;5052740;28;20397;-70
2021/03/30 13:59:21;;;;;;;18.23;10.43;;;27.00;46.90;;;;;;5052231;28;20463;-70
2021/03/30 14:01:49;;;;;;;19.55;11.70;;;26.80;47.50;;;;;;5051096;28;20405;-70
2021/03/30 14:04:15;;;;;;;18.48;11.43;;;;;;;;;;5052383;28;20408;-70
2021/03/30 14:06:42;;;;;;;14.55;9.80;;;;;;;;;;5052505;28;20404;-70
2021/03/30 14:09:09;;;;;;;17.75;10.27;;;26.40;46.50;;;;;;5052370;28;20404;-69
2021/03/30 14:11:36;;;;;;;16.57;11.17;;;26.00;48.70;;;;;;5052134;28;20907;-69